sensor_id;sensor_type;location;lat;lon;timestamp;P1;durP1;ratioP1;P2;durP2;ratioP2
73872;SDS011;62206;47.568;9.364;2024-01-16T00:02:21;15.73;;;11.60;;
73872;SDS011;62206;47.568;9.364;2024-01-16T00:04:48;17.85;;;12.48;;
73872;SDS011;62206;47.568;9.364;2024-01-16T00:07:16;19.48;;;13.98;;
73872;SDS011;62206;47.568;9.364;2024-01-16T00:09:44;18.20;;;11.95;;
73872;SDS011;62206;47.568;9.364;2024-01-16T00:12:10;19.20;;;11.90;;
73872;SDS011;62206;47.568;9.364;2024-01-16T00:14:37;16.67;;;12.03;;
73872;SDS011;62206;47.568;9.364;2024-01-16T00:17:05;16.20;;;11.10;;
73872;SDS011;62206;47.568;9.364;2024-01-16T00:19:32;15.52;;;11.57;;
73872;SDS011;62206;47.568;9.364;2024-01-16T00:21:59;17.17;;;11.35;;
73872;SDS011;62206;47.568;9.364;2024-01-16T00:24:30;18.38;;;11.68;;
73872;SDS011;62206;47.568;9.364;2024-01-16T00:26:57;14.30;;;10.77;;
73872;SDS011;62206;47.568;9.364;2024-01-16T00:29:23;15.38;;;11.80;;
73872;SDS011;62206;47.568;9.364;2024-01-16T00:31:51;14.95;;;11.57;;
73872;SDS011;62206;47.568;9.364;2024-01-16T00:34:18;15.05;;;11.73;;
73872;SDS011;62206;47.568;9.364;2024-01-16T00:36:45;16.15;;;11.60;;
73872;SDS011;62206;47.568;9.364;2024-01-16T00:39:12;16.40;;;11.07;;
73872;SDS011;62206;47.568;9.364;2024-01-16T00:41:41;16.33;;;11.25;;
73872;SDS011;62206;47.568;9.364;2024-01-16T00:44:07;14.48;;;10.57;;
73872;SDS011;62206;47.568;9.364;2024-01-16T00:46:35;16.17;;;11.50;;
73872;SDS011;62206;47.568;9.364;2024-01-16T00:49:02;15.18;;;11.00;;
73872;SDS011;62206;47.568;9.364;2024-01-16T00:51:29;16.23;;;11.00;;
73872;SDS011;62206;47.568;9.364;2024-01-16T00:53:56;16.00;;;12.00;;
73872;SDS011;62206;47.568;9.364;2024-01-16T00:56:23;16.00;;;10.65;;
73872;SDS011;62206;47.568;9.364;2024-01-16T00:58:53;13.95;;;10.85;;
73872;SDS011;62206;47.568;9.364;2024-01-16T01:01:21;15.00;;;11.68;;
73872;SDS011;62206;47.568;9.364;2024-01-16T01:03:48;13.57;;;9.53;;
73872;SDS011;62206;47.568;9.364;2024-01-16T01:06:14;15.75;;;11.52;;
73872;SDS011;62206;47.568;9.364;2024-01-16T01:08:42;16.33;;;11.00;;
73872;SDS011;62206;47.568;9.364;2024-01-16T01:11:09;17.92;;;11.68;;
73872;SDS011;62206;47.568;9.364;2024-01-16T01:13:36;14.82;;;11.82;;
73872;SDS011;62206;47.568;9.364;2024-01-16T01:16:05;14.57;;;10.47;;
73872;SDS011;62206;47.568;9.364;2024-01-16T01:18:32;15.73;;;11.45;;
73872;SDS011;62206;47.568;9.364;2024-01-16T01:21:00;15.57;;;11.50;;
73872;SDS011;62206;47.568;9.364;2024-01-16T01:23:27;14.55;;;11.43;;
73872;SDS011;62206;47.568;9.364;2024-01-16T01:25:54;13.93;;;11.15;;
73872;SDS011;62206;47.568;9.364;2024-01-16T01:28:21;14.43;;;10.63;;
73872;SDS011;62206;47.568;9.364;2024-01-16T01:30:48;15.25;;;11.52;;
73872;SDS011;62206;47.568;9.364;2024-01-16T01:33:17;15.52;;;11.80;;
73872;SDS011;62206;47.568;9.364;2024-01-16T01:35:43;15.25;;;11.45;;
73872;SDS011;62206;47.568;9.364;2024-01-16T01:38:11;18.50;;;11.10;;
73872;SDS011;62206;47.568;9.364;2024-01-16T01:40:38;14.00;;;10.80;;
73872;SDS011;62206;47.568;9.364;2024-01-16T01:43:17;15.10;;;11.68;;
73872;SDS011;62206;47.568;9.364;2024-01-16T01:45:46;15.10;;;11.75;;
73872;SDS011;62206;47.568;9.364;2024-01-16T01:48:14;15.25;;;10.48;;
73872;SDS011;62206;47.568;9.364;2024-01-16T01:50:42;17.52;;;11.38;;
73872;SDS011;62206;47.568;9.364;2024-01-16T01:53:10;14.70;;;11.30;;
73872;SDS011;62206;47.568;9.364;2024-01-16T01:55:37;14.48;;;11.45;;
73872;SDS011;62206;47.568;9.364;2024-01-16T01:58:03;15.50;;;11.35;;
73872;SDS011;62206;47.568;9.364;2024-01-16T02:00:32;14.82;;;10.52;;
73872;SDS011;62206;47.568;9.364;2024-01-16T02:02:59;15.25;;;11.32;;
73872;SDS011;62206;47.568;9.364;2024-01-16T02:05:29;15.33;;;10.87;;
73872;SDS011;62206;47.568;9.364;2024-01-16T02:07:58;15.70;;;12.30;;
73872;SDS011;62206;47.568;9.364;2024-01-16T02:10:25;15.52;;;11.68;;
73872;SDS011;62206;47.568;9.364;2024-01-16T02:12:52;16.83;;;11.43;;
73872;SDS011;62206;47.568;9.364;2024-01-16T02:15:20;15.45;;;11.65;;
73872;SDS011;62206;47.568;9.364;2024-01-16T02:17:47;14.97;;;11.80;;
73872;SDS011;62206;47.568;9.364;2024-01-16T02:20:14;15.38;;;10.85;;
73872;SDS011;62206;47.568;9.364;2024-01-16T02:22:42;15.68;;;11.18;;
73872;SDS011;62206;47.568;9.364;2024-01-16T02:25:13;14.98;;;10.13;;
73872;SDS011;62206;47.568;9.364;2024-01-16T02:27:40;15.15;;;10.80;;
73872;SDS011;62206;47.568;9.364;2024-01-16T02:30:08;15.83;;;12.23;;
73872;SDS011;62206;47.568;9.364;2024-01-16T02:32:35;15.00;;;11.45;;
73872;SDS011;62206;47.568;9.364;2024-01-16T02:35:02;16.95;;;11.80;;
73872;SDS011;62206;47.568;9.364;2024-01-16T02:37:31;14.98;;;11.18;;
73872;SDS011;62206;47.568;9.364;2024-01-16T02:39:57;15.52;;;11.50;;
73872;SDS011;62206;47.568;9.364;2024-01-16T02:42:27;16.20;;;13.00;;
73872;SDS011;62206;47.568;9.364;2024-01-16T02:44:54;15.65;;;10.50;;
73872;SDS011;62206;47.568;9.364;2024-01-16T02:47:21;16.08;;;11.73;;
73872;SDS011;62206;47.568;9.364;2024-01-16T02:49:48;15.40;;;11.80;;
73872;SDS011;62206;47.568;9.364;2024-01-16T02:52:15;16.15;;;11.73;;
73872;SDS011;62206;47.568;9.364;2024-01-16T02:54:42;14.80;;;10.80;;
73872;SDS011;62206;47.568;9.364;2024-01-16T02:57:09;14.98;;;11.27;;
73872;SDS011;62206;47.568;9.364;2024-01-16T02:59:38;16.35;;;11.40;;
73872;SDS011;62206;47.568;9.364;2024-01-16T03:02:05;18.73;;;12.80;;
73872;SDS011;62206;47.568;9.364;2024-01-16T03:04:33;15.18;;;11.55;;
73872;SDS011;62206;47.568;9.364;2024-01-16T03:07:00;21.23;;;13.73;;
73872;SDS011;62206;47.568;9.364;2024-01-16T03:09:27;16.67;;;12.38;;
73872;SDS011;62206;47.568;9.364;2024-01-16T03:11:54;16.30;;;12.00;;
73872;SDS011;62206;47.568;9.364;2024-01-16T03:14:22;15.55;;;11.20;;
73872;SDS011;62206;47.568;9.364;2024-01-16T03:16:50;16.33;;;12.15;;
73872;SDS011;62206;47.568;9.364;2024-01-16T03:19:17;15.80;;;11.73;;
73872;SDS011;62206;47.568;9.364;2024-01-16T03:21:44;14.82;;;10.80;;
73872;SDS011;62206;47.568;9.364;2024-01-16T03:24:11;13.63;;;10.25;;
73872;SDS011;62206;47.568;9.364;2024-01-16T03:26:38;17.00;;;11.48;;
73872;SDS011;62206;47.568;9.364;2024-01-16T03:29:06;16.10;;;11.95;;
73872;SDS011;62206;47.568;9.364;2024-01-16T03:31:33;15.20;;;11.63;;
73872;SDS011;62206;47.568;9.364;2024-01-16T03:34:01;14.82;;;11.75;;
73872;SDS011;62206;47.568;9.364;2024-01-16T03:36:28;14.68;;;11.88;;
73872;SDS011;62206;47.568;9.364;2024-01-16T03:38:55;13.40;;;10.85;;
73872;SDS011;62206;47.568;9.364;2024-01-16T03:41:22;14.63;;;11.63;;
73872;SDS011;62206;47.568;9.364;2024-01-16T03:43:50;16.67;;;12.00;;
73872;SDS011;62206;47.568;9.364;2024-01-16T03:46:17;13.45;;;10.65;;
73872;SDS011;62206;47.568;9.364;2024-01-16T03:48:43;16.13;;;12.20;;
73872;SDS011;62206;47.568;9.364;2024-01-16T03:51:12;16.60;;;11.32;;
73872;SDS011;62206;47.568;9.364;2024-01-16T03:53:40;14.18;;;11.48;;
73872;SDS011;62206;47.568;9.364;2024-01-16T03:56:07;13.90;;;10.47;;
73872;SDS011;62206;47.568;9.364;2024-01-16T03:58:35;12.88;;;10.75;;
73872;SDS011;62206;47.568;9.364;2024-01-16T04:01:02;14.90;;;10.30;;
73872;SDS011;62206;47.568;9.364;2024-01-16T04:03:28;13.13;;;9.27;;
73872;SDS011;62206;47.568;9.364;2024-01-16T04:05:56;13.68;;;10.57;;
73872;SDS011;62206;47.568;9.364;2024-01-16T04:08:24;14.77;;;11.67;;
73872;SDS011;62206;47.568;9.364;2024-01-16T04:10:51;12.73;;;10.60;;
73872;SDS011;62206;47.568;9.364;2024-01-16T04:13:18;13.80;;;11.23;;
73872;SDS011;62206;47.568;9.364;2024-01-16T04:15:45;13.07;;;11.07;;
73872;SDS011;62206;47.568;9.364;2024-01-16T04:18:12;14.80;;;11.02;;
73872;SDS011;62206;47.568;9.364;2024-01-16T04:20:40;12.87;;;10.50;;
73872;SDS011;62206;47.568;9.364;2024-01-16T04:23:07;12.95;;;10.35;;
73872;SDS011;62206;47.568;9.364;2024-01-16T04:25:35;12.77;;;10.02;;
73872;SDS011;62206;47.568;9.364;2024-01-16T04:28:03;15.35;;;10.85;;
73872;SDS011;62206;47.568;9.364;2024-01-16T04:30:30;14.85;;;12.45;;
73872;SDS011;62206;47.568;9.364;2024-01-16T04:32:57;16.80;;;11.53;;
73872;SDS011;62206;47.568;9.364;2024-01-16T04:35:24;15.55;;;12.48;;
73872;SDS011;62206;47.568;9.364;2024-01-16T04:37:51;14.75;;;10.85;;
73872;SDS011;62206;47.568;9.364;2024-01-16T04:40:18;15.20;;;11.43;;
73872;SDS011;62206;47.568;9.364;2024-01-16T04:42:47;16.35;;;12.05;;
73872;SDS011;62206;47.568;9.364;2024-01-16T04:45:14;16.90;;;13.07;;
73872;SDS011;62206;47.568;9.364;2024-01-16T04:47:41;18.27;;;12.80;;
73872;SDS011;62206;47.568;9.364;2024-01-16T04:50:08;14.90;;;12.10;;
73872;SDS011;62206;47.568;9.364;2024-01-16T04:52:35;16.60;;;12.45;;
73872;SDS011;62206;47.568;9.364;2024-01-16T04:55:02;16.35;;;12.05;;
73872;SDS011;62206;47.568;9.364;2024-01-16T04:57:30;17.53;;;12.17;;
73872;SDS011;62206;47.568;9.364;2024-01-16T04:59:59;21.05;;;12.30;;
73872;SDS011;62206;47.568;9.364;2024-01-16T05:02:26;18.95;;;12.45;;
73872;SDS011;62206;47.568;9.364;2024-01-16T05:04:53;16.45;;;12.32;;
73872;SDS011;62206;47.568;9.364;2024-01-16T05:07:20;19.38;;;13.15;;
73872;SDS011;62206;47.568;9.364;2024-01-16T05:09:49;15.37;;;12.43;;
73872;SDS011;62206;47.568;9.364;2024-01-16T05:12:17;15.50;;;12.27;;
73872;SDS011;62206;47.568;9.364;2024-01-16T05:14:43;16.70;;;13.32;;
73872;SDS011;62206;47.568;9.364;2024-01-16T05:17:12;17.20;;;12.48;;
73872;SDS011;62206;47.568;9.364;2024-01-16T05:19:39;16.85;;;12.93;;
73872;SDS011;62206;47.568;9.364;2024-01-16T05:22:06;16.57;;;12.47;;
73872;SDS011;62206;47.568;9.364;2024-01-16T05:24:33;16.65;;;12.82;;
73872;SDS011;62206;47.568;9.364;2024-01-16T05:27:01;17.17;;;12.25;;
73872;SDS011;62206;47.568;9.364;2024-01-16T05:29:26;15.45;;;12.80;;
73872;SDS011;62206;47.568;9.364;2024-01-16T05:31:53;14.77;;;12.63;;
73872;SDS011;62206;47.568;9.364;2024-01-16T05:34:22;16.85;;;12.23;;
73872;SDS011;62206;47.568;9.364;2024-01-16T05:36:49;15.93;;;11.65;;
73872;SDS011;62206;47.568;9.364;2024-01-16T05:39:16;15.75;;;12.32;;
73872;SDS011;62206;47.568;9.364;2024-01-16T05:41:44;14.80;;;11.93;;
73872;SDS011;62206;47.568;9.364;2024-01-16T05:44:11;15.27;;;11.80;;
73872;SDS011;62206;47.568;9.364;2024-01-16T05:46:38;14.95;;;11.40;;
73872;SDS011;62206;47.568;9.364;2024-01-16T05:49:05;16.63;;;12.65;;
73872;SDS011;62206;47.568;9.364;2024-01-16T05:51:33;14.13;;;12.63;;
73872;SDS011;62206;47.568;9.364;2024-01-16T05:54:00;14.48;;;12.32;;
73872;SDS011;62206;47.568;9.364;2024-01-16T05:56:30;14.93;;;11.43;;
73872;SDS011;62206;47.568;9.364;2024-01-16T05:58:57;16.80;;;11.52;;
73872;SDS011;62206;47.568;9.364;2024-01-16T06:01:24;12.43;;;10.18;;
73872;SDS011;62206;47.568;9.364;2024-01-16T06:03:53;12.55;;;10.82;;
73872;SDS011;62206;47.568;9.364;2024-01-16T06:06:20;11.93;;;10.05;;
73872;SDS011;62206;47.568;9.364;2024-01-16T06:08:48;14.17;;;10.97;;
73872;SDS011;62206;47.568;9.364;2024-01-16T06:11:15;11.70;;;10.25;;
73872;SDS011;62206;47.568;9.364;2024-01-16T06:13:43;13.07;;;10.95;;
73872;SDS011;62206;47.568;9.364;2024-01-16T06:16:10;11.43;;;10.07;;
73872;SDS011;62206;47.568;9.364;2024-01-16T06:18:37;12.57;;;10.48;;
73872;SDS011;62206;47.568;9.364;2024-01-16T06:21:04;11.77;;;9.93;;
73872;SDS011;62206;47.568;9.364;2024-01-16T06:23:31;12.45;;;9.70;;
73872;SDS011;62206;47.568;9.364;2024-01-16T06:26:00;11.57;;;9.55;;
73872;SDS011;62206;47.568;9.364;2024-01-16T06:28:27;10.00;;;8.20;;
73872;SDS011;62206;47.568;9.364;2024-01-16T06:30:54;11.10;;;9.93;;
73872;SDS011;62206;47.568;9.364;2024-01-16T06:33:21;12.30;;;9.83;;
73872;SDS011;62206;47.568;9.364;2024-01-16T06:35:48;10.65;;;8.98;;
73872;SDS011;62206;47.568;9.364;2024-01-16T06:38:15;12.18;;;10.10;;
73872;SDS011;62206;47.568;9.364;2024-01-16T06:40:42;12.13;;;9.73;;
73872;SDS011;62206;47.568;9.364;2024-01-16T06:43:11;11.90;;;9.65;;
73872;SDS011;62206;47.568;9.364;2024-01-16T06:45:39;11.67;;;9.50;;
73872;SDS011;62206;47.568;9.364;2024-01-16T06:48:08;10.52;;;9.35;;
73872;SDS011;62206;47.568;9.364;2024-01-16T06:50:34;12.30;;;9.15;;
73872;SDS011;62206;47.568;9.364;2024-01-16T06:53:01;11.50;;;8.75;;
73872;SDS011;62206;47.568;9.364;2024-01-16T06:55:29;10.98;;;9.88;;
73872;SDS011;62206;47.568;9.364;2024-01-16T06:57:56;11.23;;;9.20;;
73872;SDS011;62206;47.568;9.364;2024-01-16T07:00:24;10.90;;;9.13;;
73872;SDS011;62206;47.568;9.364;2024-01-16T07:02:53;12.65;;;10.10;;
73872;SDS011;62206;47.568;9.364;2024-01-16T07:05:20;12.98;;;10.45;;
73872;SDS011;62206;47.568;9.364;2024-01-16T07:07:47;11.35;;;9.02;;
73872;SDS011;62206;47.568;9.364;2024-01-16T07:10:15;15.87;;;11.80;;
73872;SDS011;62206;47.568;9.364;2024-01-16T07:12:44;19.05;;;13.52;;
73872;SDS011;62206;47.568;9.364;2024-01-16T07:15:12;15.57;;;12.15;;
73872;SDS011;62206;47.568;9.364;2024-01-16T07:17:40;16.10;;;12.40;;
73872;SDS011;62206;47.568;9.364;2024-01-16T07:20:08;16.02;;;11.95;;
73872;SDS011;62206;47.568;9.364;2024-01-16T07:22:36;16.43;;;12.00;;
73872;SDS011;62206;47.568;9.364;2024-01-16T07:25:05;15.40;;;11.75;;
73872;SDS011;62206;47.568;9.364;2024-01-16T07:27:32;11.85;;;9.95;;
73872;SDS011;62206;47.568;9.364;2024-01-16T07:29:59;12.35;;;9.85;;
73872;SDS011;62206;47.568;9.364;2024-01-16T07:32:27;11.10;;;9.60;;
73872;SDS011;62206;47.568;9.364;2024-01-16T07:34:55;10.80;;;8.93;;
73872;SDS011;62206;47.568;9.364;2024-01-16T07:37:22;10.70;;;8.15;;
73872;SDS011;62206;47.568;9.364;2024-01-16T07:39:49;13.35;;;8.32;;
73872;SDS011;62206;47.568;9.364;2024-01-16T07:42:15;12.85;;;9.00;;
73872;SDS011;62206;47.568;9.364;2024-01-16T07:44:42;15.23;;;11.23;;
73872;SDS011;62206;47.568;9.364;2024-01-16T07:47:10;18.03;;;13.13;;
73872;SDS011;62206;47.568;9.364;2024-01-16T07:49:36;21.67;;;15.15;;
73872;SDS011;62206;47.568;9.364;2024-01-16T07:52:05;21.15;;;15.80;;
73872;SDS011;62206;47.568;9.364;2024-01-16T07:54:33;22.40;;;15.15;;
73872;SDS011;62206;47.568;9.364;2024-01-16T07:57:00;21.08;;;15.60;;
73872;SDS011;62206;47.568;9.364;2024-01-16T07:59:27;19.10;;;13.80;;
73872;SDS011;62206;47.568;9.364;2024-01-16T08:01:54;14.93;;;11.77;;
73872;SDS011;62206;47.568;9.364;2024-01-16T08:04:22;14.85;;;10.25;;
73872;SDS011;62206;47.568;9.364;2024-01-16T08:06:49;12.13;;;10.60;;
73872;SDS011;62206;47.568;9.364;2024-01-16T08:09:18;15.07;;;11.20;;
73872;SDS011;62206;47.568;9.364;2024-01-16T08:11:45;12.53;;;10.50;;
73872;SDS011;62206;47.568;9.364;2024-01-16T08:14:12;12.95;;;9.52;;
73872;SDS011;62206;47.568;9.364;2024-01-16T08:16:40;15.57;;;10.38;;
73872;SDS011;62206;47.568;9.364;2024-01-16T08:19:06;14.57;;;10.90;;
73872;SDS011;62206;47.568;9.364;2024-01-16T08:21:33;10.73;;;9.60;;
73872;SDS011;62206;47.568;9.364;2024-01-16T08:24:01;11.80;;;9.07;;
73872;SDS011;62206;47.568;9.364;2024-01-16T08:26:29;11.70;;;9.65;;
73872;SDS011;62206;47.568;9.364;2024-01-16T08:28:56;11.23;;;8.98;;
73872;SDS011;62206;47.568;9.364;2024-01-16T08:31:23;10.02;;;8.88;;
73872;SDS011;62206;47.568;9.364;2024-01-16T08:33:50;11.48;;;8.65;;
73872;SDS011;62206;47.568;9.364;2024-01-16T08:36:17;11.73;;;9.27;;
73872;SDS011;62206;47.568;9.364;2024-01-16T08:38:44;12.40;;;9.40;;
73872;SDS011;62206;47.568;9.364;2024-01-16T08:41:11;13.27;;;10.13;;
73872;SDS011;62206;47.568;9.364;2024-01-16T08:43:41;14.55;;;9.50;;
73872;SDS011;62206;47.568;9.364;2024-01-16T08:46:09;13.80;;;10.05;;
73872;SDS011;62206;47.568;9.364;2024-01-16T08:48:36;12.93;;;10.23;;
73872;SDS011;62206;47.568;9.364;2024-01-16T08:51:04;12.80;;;10.32;;
73872;SDS011;62206;47.568;9.364;2024-01-16T08:53:35;11.60;;;10.40;;
73872;SDS011;62206;47.568;9.364;2024-01-16T08:56:02;13.68;;;10.52;;
73872;SDS011;62206;47.568;9.364;2024-01-16T08:58:32;11.10;;;9.15;;
73872;SDS011;62206;47.568;9.364;2024-01-16T09:01:03;12.67;;;9.60;;
73872;SDS011;62206;47.568;9.364;2024-01-16T09:03:30;11.90;;;10.57;;
73872;SDS011;62206;47.568;9.364;2024-01-16T09:05:57;11.48;;;10.27;;
73872;SDS011;62206;47.568;9.364;2024-01-16T09:08:25;11.52;;;9.63;;
73872;SDS011;62206;47.568;9.364;2024-01-16T09:10:52;11.75;;;9.88;;
73872;SDS011;62206;47.568;9.364;2024-01-16T09:13:19;12.53;;;9.93;;
73872;SDS011;62206;47.568;9.364;2024-01-16T09:15:48;13.23;;;10.85;;
73872;SDS011;62206;47.568;9.364;2024-01-16T09:18:16;10.55;;;9.43;;
73872;SDS011;62206;47.568;9.364;2024-01-16T09:20:43;11.45;;;9.57;;
73872;SDS011;62206;47.568;9.364;2024-01-16T09:23:11;13.55;;;9.80;;
73872;SDS011;62206;47.568;9.364;2024-01-16T09:25:38;10.67;;;9.13;;
73872;SDS011;62206;47.568;9.364;2024-01-16T09:28:05;11.85;;;9.35;;
73872;SDS011;62206;47.568;9.364;2024-01-16T09:30:33;11.57;;;9.25;;
73872;SDS011;62206;47.568;9.364;2024-01-16T09:33:00;11.25;;;9.65;;
73872;SDS011;62206;47.568;9.364;2024-01-16T09:35:30;10.90;;;9.80;;
73872;SDS011;62206;47.568;9.364;2024-01-16T09:37:57;11.73;;;8.93;;
73872;SDS011;62206;47.568;9.364;2024-01-16T09:40:24;12.70;;;9.57;;
73872;SDS011;62206;47.568;9.364;2024-01-16T09:42:51;9.75;;;8.48;;
73872;SDS011;62206;47.568;9.364;2024-01-16T09:45:19;13.23;;;9.02;;
73872;SDS011;62206;47.568;9.364;2024-01-16T09:47:47;11.25;;;10.05;;
73872;SDS011;62206;47.568;9.364;2024-01-16T09:50:14;12.73;;;9.23;;
73872;SDS011;62206;47.568;9.364;2024-01-16T09:52:44;11.38;;;9.50;;
73872;SDS011;62206;47.568;9.364;2024-01-16T09:55:11;13.13;;;9.35;;
73872;SDS011;62206;47.568;9.364;2024-01-16T09:57:40;11.23;;;9.13;;
73872;SDS011;62206;47.568;9.364;2024-01-16T10:00:08;11.23;;;9.95;;
73872;SDS011;62206;47.568;9.364;2024-01-16T10:02:38;11.83;;;9.63;;
73872;SDS011;62206;47.568;9.364;2024-01-16T10:05:06;11.15;;;10.05;;
73872;SDS011;62206;47.568;9.364;2024-01-16T10:07:35;11.98;;;10.18;;
73872;SDS011;62206;47.568;9.364;2024-01-16T10:10:05;12.70;;;9.32;;
73872;SDS011;62206;47.568;9.364;2024-01-16T10:12:37;11.57;;;9.88;;
73872;SDS011;62206;47.568;9.364;2024-01-16T10:15:04;11.93;;;10.33;;
73872;SDS011;62206;47.568;9.364;2024-01-16T10:17:36;13.13;;;10.00;;
73872;SDS011;62206;47.568;9.364;2024-01-16T10:20:04;11.73;;;8.48;;
73872;SDS011;62206;47.568;9.364;2024-01-16T10:22:32;11.05;;;9.60;;
73872;SDS011;62206;47.568;9.364;2024-01-16T10:25:07;13.75;;;9.85;;
73872;SDS011;62206;47.568;9.364;2024-01-16T10:27:38;11.13;;;9.07;;
73872;SDS011;62206;47.568;9.364;2024-01-16T10:30:05;12.95;;;10.05;;
73872;SDS011;62206;47.568;9.364;2024-01-16T10:32:34;10.80;;;9.70;;
73872;SDS011;62206;47.568;9.364;2024-01-16T10:35:03;13.15;;;9.82;;
73872;SDS011;62206;47.568;9.364;2024-01-16T10:37:30;13.27;;;10.02;;
73872;SDS011;62206;47.568;9.364;2024-01-16T10:39:57;12.30;;;10.07;;
73872;SDS011;62206;47.568;9.364;2024-01-16T10:42:26;12.60;;;10.18;;
73872;SDS011;62206;47.568;9.364;2024-01-16T10:44:53;11.65;;;10.07;;
73872;SDS011;62206;47.568;9.364;2024-01-16T10:47:21;12.85;;;9.10;;
73872;SDS011;62206;47.568;9.364;2024-01-16T10:49:49;11.60;;;9.90;;
73872;SDS011;62206;47.568;9.364;2024-01-16T10:52:17;11.00;;;9.27;;
73872;SDS011;62206;47.568;9.364;2024-01-16T10:54:46;13.25;;;10.27;;
73872;SDS011;62206;47.568;9.364;2024-01-16T10:57:15;12.05;;;9.38;;
73872;SDS011;62206;47.568;9.364;2024-01-16T10:59:45;13.38;;;10.82;;
73872;SDS011;62206;47.568;9.364;2024-01-16T11:02:18;14.95;;;10.68;;
73872;SDS011;62206;47.568;9.364;2024-01-16T11:04:47;11.20;;;9.10;;
73872;SDS011;62206;47.568;9.364;2024-01-16T11:07:15;12.05;;;10.82;;
73872;SDS011;62206;47.568;9.364;2024-01-16T11:09:43;12.63;;;10.15;;
73872;SDS011;62206;47.568;9.364;2024-01-16T11:12:11;14.30;;;8.95;;
73872;SDS011;62206;47.568;9.364;2024-01-16T11:14:46;11.85;;;10.63;;
73872;SDS011;62206;47.568;9.364;2024-01-16T11:17:18;11.17;;;9.87;;
73872;SDS011;62206;47.568;9.364;2024-01-16T11:19:46;12.02;;;9.95;;
73872;SDS011;62206;47.568;9.364;2024-01-16T11:22:13;13.80;;;10.20;;
73872;SDS011;62206;47.568;9.364;2024-01-16T11:24:41;11.27;;;9.52;;
73872;SDS011;62206;47.568;9.364;2024-01-16T11:27:16;11.57;;;9.70;;
73872;SDS011;62206;47.568;9.364;2024-01-16T11:29:50;11.03;;;9.80;;
73872;SDS011;62206;47.568;9.364;2024-01-16T11:32:32;13.73;;;9.05;;
73872;SDS011;62206;47.568;9.364;2024-01-16T11:35:00;13.02;;;10.07;;
73872;SDS011;62206;47.568;9.364;2024-01-16T11:37:27;13.30;;;9.05;;
73872;SDS011;62206;47.568;9.364;2024-01-16T11:40:20;11.70;;;8.85;;
73872;SDS011;62206;47.568;9.364;2024-01-16T11:42:52;12.87;;;10.23;;
73872;SDS011;62206;47.568;9.364;2024-01-16T11:48:17;13.75;;;10.57;;
73872;SDS011;62206;47.568;9.364;2024-01-16T11:50:45;12.85;;;10.45;;
73872;SDS011;62206;47.568;9.364;2024-01-16T11:56:13;13.87;;;11.17;;
73872;SDS011;62206;47.568;9.364;2024-01-16T11:58:48;13.02;;;10.63;;
73872;SDS011;62206;47.568;9.364;2024-01-16T12:01:19;10.90;;;9.80;;
73872;SDS011;62206;47.568;9.364;2024-01-16T12:03:46;12.43;;;9.23;;
73872;SDS011;62206;47.568;9.364;2024-01-16T12:06:15;13.35;;;10.20;;
73872;SDS011;62206;47.568;9.364;2024-01-16T12:08:43;12.80;;;10.20;;
73872;SDS011;62206;47.568;9.364;2024-01-16T12:11:10;11.63;;;9.15;;
73872;SDS011;62206;47.568;9.364;2024-01-16T12:13:36;12.73;;;10.10;;
73872;SDS011;62206;47.568;9.364;2024-01-16T12:16:04;14.05;;;10.50;;
73872;SDS011;62206;47.568;9.364;2024-01-16T12:18:32;12.85;;;10.48;;
73872;SDS011;62206;47.568;9.364;2024-01-16T12:21:07;12.80;;;10.43;;
73872;SDS011;62206;47.568;9.364;2024-01-16T12:23:35;13.13;;;10.02;;
73872;SDS011;62206;47.568;9.364;2024-01-16T12:26:02;12.82;;;10.85;;
73872;SDS011;62206;47.568;9.364;2024-01-16T12:28:29;11.50;;;9.90;;
73872;SDS011;62206;47.568;9.364;2024-01-16T12:30:57;14.55;;;10.70;;
73872;SDS011;62206;47.568;9.364;2024-01-16T12:33:23;13.53;;;10.77;;
73872;SDS011;62206;47.568;9.364;2024-01-16T12:35:59;13.20;;;10.43;;
73872;SDS011;62206;47.568;9.364;2024-01-16T12:38:28;13.27;;;10.88;;
73872;SDS011;62206;47.568;9.364;2024-01-16T12:40:55;14.90;;;10.38;;
73872;SDS011;62206;47.568;9.364;2024-01-16T12:43:21;12.65;;;11.02;;
73872;SDS011;62206;47.568;9.364;2024-01-16T12:45:54;14.33;;;10.23;;
73872;SDS011;62206;47.568;9.364;2024-01-16T12:48:22;11.93;;;9.52;;
73872;SDS011;62206;47.568;9.364;2024-01-16T12:50:49;13.18;;;11.30;;
73872;SDS011;62206;47.568;9.364;2024-01-16T12:53:21;14.50;;;10.50;;
73872;SDS011;62206;47.568;9.364;2024-01-16T12:55:57;13.45;;;10.70;;
73872;SDS011;62206;47.568;9.364;2024-01-16T12:58:24;12.97;;;10.33;;
73872;SDS011;62206;47.568;9.364;2024-01-16T13:00:53;12.25;;;10.05;;
73872;SDS011;62206;47.568;9.364;2024-01-16T13:03:21;13.48;;;11.27;;
73872;SDS011;62206;47.568;9.364;2024-01-16T13:05:55;12.35;;;10.82;;
73872;SDS011;62206;47.568;9.364;2024-01-16T13:08:24;13.13;;;10.63;;
73872;SDS011;62206;47.568;9.364;2024-01-16T13:11:03;12.23;;;10.73;;
73872;SDS011;62206;47.568;9.364;2024-01-16T13:13:31;14.10;;;11.25;;
73872;SDS011;62206;47.568;9.364;2024-01-16T13:15:58;15.15;;;11.07;;
73872;SDS011;62206;47.568;9.364;2024-01-16T13:18:24;15.00;;;11.20;;
73872;SDS011;62206;47.568;9.364;2024-01-16T13:20:55;12.75;;;10.23;;
73872;SDS011;62206;47.568;9.364;2024-01-16T13:23:23;12.20;;;9.87;;
73872;SDS011;62206;47.568;9.364;2024-01-16T13:25:51;12.45;;;10.10;;
73872;SDS011;62206;47.568;9.364;2024-01-16T13:28:19;13.48;;;10.75;;
73872;SDS011;62206;47.568;9.364;2024-01-16T13:30:47;15.10;;;10.60;;
73872;SDS011;62206;47.568;9.364;2024-01-16T13:33:14;14.70;;;11.05;;
73872;SDS011;62206;47.568;9.364;2024-01-16T13:35:43;13.57;;;9.77;;
73872;SDS011;62206;47.568;9.364;2024-01-16T13:38:13;13.77;;;10.90;;
73872;SDS011;62206;47.568;9.364;2024-01-16T13:40:41;15.02;;;11.65;;
73872;SDS011;62206;47.568;9.364;2024-01-16T13:43:08;13.63;;;10.75;;
73872;SDS011;62206;47.568;9.364;2024-01-16T13:45:37;13.48;;;10.23;;
73872;SDS011;62206;47.568;9.364;2024-01-16T13:48:05;13.30;;;10.20;;
73872;SDS011;62206;47.568;9.364;2024-01-16T13:50:32;16.25;;;11.48;;
73872;SDS011;62206;47.568;9.364;2024-01-16T13:52:59;13.15;;;10.63;;
73872;SDS011;62206;47.568;9.364;2024-01-16T13:55:29;13.32;;;10.65;;
73872;SDS011;62206;47.568;9.364;2024-01-16T13:57:57;13.05;;;10.85;;
73872;SDS011;62206;47.568;9.364;2024-01-16T14:00:24;13.30;;;10.17;;
73872;SDS011;62206;47.568;9.364;2024-01-16T14:02:51;13.90;;;11.32;;
73872;SDS011;62206;47.568;9.364;2024-01-16T14:05:20;15.35;;;12.23;;
73872;SDS011;62206;47.568;9.364;2024-01-16T14:07:49;13.38;;;10.68;;
73872;SDS011;62206;47.568;9.364;2024-01-16T14:10:18;12.07;;;10.25;;
73872;SDS011;62206;47.568;9.364;2024-01-16T14:12:48;15.77;;;10.73;;
73872;SDS011;62206;47.568;9.364;2024-01-16T14:15:16;14.60;;;11.05;;
73872;SDS011;62206;47.568;9.364;2024-01-16T14:17:46;13.77;;;11.23;;
73872;SDS011;62206;47.568;9.364;2024-01-16T14:20:15;12.88;;;10.73;;
73872;SDS011;62206;47.568;9.364;2024-01-16T14:22:42;15.30;;;11.27;;
73872;SDS011;62206;47.568;9.364;2024-01-16T14:25:10;14.77;;;10.83;;
73872;SDS011;62206;47.568;9.364;2024-01-16T14:27:39;13.95;;;11.10;;
73872;SDS011;62206;47.568;9.364;2024-01-16T14:30:09;14.30;;;11.90;;
73872;SDS011;62206;47.568;9.364;2024-01-16T14:32:38;13.85;;;11.35;;
73872;SDS011;62206;47.568;9.364;2024-01-16T14:35:05;15.38;;;10.02;;
73872;SDS011;62206;47.568;9.364;2024-01-16T14:37:34;15.47;;;10.83;;